Time;durP1;ratioP1;P1;durP2;ratioP2;P2;SDS_P1;SDS_P2;PMS_P1;PMS_P2;Temp;Humidity;BMP_temperature;BMP_pressure;BME280_temperature;BME280_humidity;BME280_pressure;Samples;Min_cycle;Max_cycle;Signal;HPM_P1;HPM_P2
2022/10/18 00:03:43;;;;;;;3.80;2.42;;;;;;;10.35;100.00;101900.28;10538095;28;20044;-69
2022/10/18 00:08:44;;;;;;;4.70;2.65;;;;;;;10.57;100.00;101928.53;10537292;28;20098;-69
2022/10/18 00:13:45;;;;;;;5.10;2.95;;;;;;;10.08;100.00;101860.91;10535861;28;20101;-69
2022/10/18 00:18:47;;;;;;;3.50;2.50;;;;;;;10.59;100.00;101942.53;10537021;28;20048;-69
2022/10/18 00:23:49;;;;;;;4.78;2.90;;;;;;;10.48;100.00;101937.28;10536934;28;20549;-69
2022/10/18 00:29:02;;;;;;;4.13;3.00;;;;;;;10.74;100.00;101969.66;10538261;28;20047;-69
2022/10/18 00:34:06;;;;;;;11.43;2.92;;;;;;;10.50;100.00;101949.47;10537366;28;20036;-69
2022/10/18 00:39:13;;;;;;;5.00;2.70;;;;;;;10.59;100.00;101960.28;10537436;28;20127;-69
2022/10/18 00:44:16;;;;;;;10.55;3.38;;;;;;;10.80;100.00;101987.75;10536874;28;20066;-69
2022/10/18 00:49:22;;;;;;;4.47;3.50;;;;;;;10.74;100.00;101994.41;10535799;28;20032;-69
2022/10/18 00:54:25;;;;;;;4.55;3.22;;;;;;;10.56;100.00;101971.16;10538731;28;20085;-69
2022/10/18 00:59:26;;;;;;;5.97;3.60;;;;;;;10.61;100.00;101976.94;10545371;28;20051;-69
2022/10/18 01:04:27;;;;;;;4.72;3.10;;;;;;;10.77;100.00;101979.16;10544412;28;20466;-69
2022/10/18 01:09:34;;;;;;;7.95;3.42;;;;;;;10.46;100.00;101929.41;10544536;28;20093;-69
2022/10/18 01:14:42;;;;;;;5.50;3.65;;;;;;;10.13;100.00;101892.38;10545039;28;20051;-69
2022/10/18 01:20:01;;;;;;;6.57;4.03;;;;;;;10.64;100.00;101990.81;10543042;28;20108;-69
2022/10/18 01:25:14;;;;;;;6.60;4.38;;;;;;;10.66;100.00;101994.19;10543892;28;20071;-69
2022/10/18 01:30:48;;;;;;;6.78;4.15;;;;;;;10.59;100.00;101978.88;10544280;28;20453;-69
2022/10/18 01:36:18;;;;;;;9.25;4.40;;;;;;;10.73;100.00;101989.22;10543889;28;20158;-69
2022/10/18 01:41:23;;;;;;;6.00;4.72;;;;;;;10.51;100.00;101964.44;10542800;28;20052;-69
2022/10/18 01:46:24;;;;;;;;;;;;;;;10.78;100.00;101988.84;10543914;28;20055;-69
2022/10/18 01:51:26;;;;;;;7.47;4.88;;;;;;;10.60;100.00;101993.88;10543814;28;19923;-69
2022/10/18 01:56:34;;;;;;;6.82;4.35;;;;;;;10.57;100.00;101987.00;10543063;28;20144;-69
2022/10/18 02:01:43;;;;;;;8.00;4.53;;;;;;;10.55;100.00;101998.72;10541784;28;20040;-69
2022/10/18 02:06:46;;;;;;;5.93;4.07;;;;;;;10.37;100.00;101967.38;10541683;28;20052;-69
2022/10/18 02:11:52;;;;;;;7.97;5.03;;;;;;;10.31;100.00;101967.91;10541934;28;20506;-69
2022/10/18 02:16:59;;;;;;;5.25;4.38;;;;;;;10.18;100.00;101959.22;10542145;28;20123;-69
2022/10/18 02:22:01;;;;;;;6.50;4.03;;;;;;;10.20;100.00;101962.59;10541511;28;20044;-70
2022/10/18 02:27:02;;;;;;;8.80;5.40;;;;;;;10.30;100.00;101989.28;10541738;28;20043;-69
2022/10/18 02:32:14;;;;;;;9.02;5.45;;;;;;;10.39;100.00;102000.00;10541564;28;20032;-69
2022/10/18 02:37:17;;;;;;;12.68;6.18;;;;;;;10.16;100.00;101971.78;10540802;28;20552;-69
2022/10/18 02:42:18;;;;;;;8.90;5.82;;;;;;;10.11;100.00;101947.41;10541212;28;20064;-69
2022/10/18 02:47:18;;;;;;;9.35;7.13;;;;;;;10.23;100.00;101978.25;10539266;28;20047;-69
2022/10/18 02:52:19;;;;;;;13.20;6.60;;;;;;;10.05;100.00;101946.97;10539754;28;20487;-69
2022/10/18 02:57:20;;;;;;;8.93;5.53;;;;;;;10.09;100.00;101952.84;10539914;28;20051;-69
2022/10/18 03:02:21;;;;;;;13.52;5.40;;;;;;;10.41;100.00;101998.06;10540402;28;20071;-69
2022/10/18 03:07:22;;;;;;;12.30;5.00;;;;;;;10.49;100.00;102000.91;10539513;28;20056;-69
2022/10/18 03:12:22;;;;;;;27.17;6.28;;;;;;;10.29;100.00;101967.19;10535565;28;20058;-69
2022/10/18 03:17:23;;;;;;;15.50;4.88;;;;;;;10.47;100.00;101992.25;10539595;28;20067;-69
2022/10/18 03:22:26;;;;;;;16.95;5.78;;;;;;;9.76;100.00;101888.28;10534032;28;20154;-70
2022/10/18 03:27:26;;;;;;;24.38;6.32;;;;;;;10.30;100.00;101984.81;10533961;28;20036;-69
2022/10/18 03:32:27;;;;;;;19.33;5.95;;;;;;;9.86;100.00;101925.53;10533834;28;20036;-70
2022/10/18 03:37:28;;;;;;;9.13;5.65;;;;;;;9.70;100.00;101898.53;10533965;28;20093;-72
2022/10/18 03:42:29;;;;;;;13.02;5.40;;;;;;;10.35;100.00;102010.97;10534512;28;20507;-71
2022/10/18 03:47:30;;;;;;;28.45;6.55;;;;;;;10.43;100.00;102019.16;10539211;28;20040;-71
2022/10/18 03:52:31;;;;;;;21.35;5.30;;;;;;;9.81;100.00;101891.41;10538149;28;20060;-72
2022/10/18 03:57:31;;;;;;;14.48;5.28;;;;;;;10.41;100.00;101986.56;10537973;28;20131;-71
2022/10/18 04:02:32;;;;;;;10.43;5.00;;;;;;;10.73;100.00;102007.81;10538272;28;20043;-71
2022/10/18 04:07:34;;;;;;;10.68;4.85;;;;;;;10.77;100.00;101998.63;10516597;28;20052;-68
2022/10/18 04:12:35;;;;;;;12.32;5.00;;;;;;;10.89;100.00;102013.53;10534499;28;20040;-71
2022/10/18 04:17:36;;;;;;;15.27;3.58;;;;;;;10.36;100.00;101931.19;10537454;28;20089;-71
2022/10/18 04:22:37;;;;;;;4.65;3.08;;;;;;;10.92;100.00;102009.78;10537792;28;20045;-71
2022/10/18 04:27:37;;;;;;;15.68;3.00;;;;;;;11.08;100.00;102041.25;10536407;28;20040;-70
2022/10/18 04:32:38;;;;;;;10.52;2.40;;;;;;;10.57;100.00;101948.97;10536278;28;20147;-69
2022/10/18 04:37:39;;;;;;;11.00;2.35;;;;;;;11.29;100.00;102044.72;10537718;28;20109;-70
2022/10/18 04:42:40;;;;;;;4.22;2.22;;;;;;;10.83;100.00;101966.22;10536804;28;20040;-70
2022/10/18 04:47:40;;;;;;;10.38;2.92;;;;;;;11.39;100.00;102050.09;10535573;28;20040;-69
2022/10/18 04:52:41;;;;;;;4.20;2.28;;;;;;;11.54;100.00;102074.56;10537134;28;20098;-69
2022/10/18 04:57:42;;;;;;;3.60;2.47;;;;;;;11.12;100.00;101994.78;10535948;28;20127;-69
2022/10/18 05:02:43;;;;;;;6.38;2.47;;;;;;;11.64;100.00;102072.81;10536966;28;20036;-69
2022/10/18 05:07:44;;;;;;;7.85;2.42;;;;;;;11.70;100.00;102082.91;10535965;28;20102;-69
2022/10/18 05:12:44;;;;;;;3.58;2.13;;;;;;;11.63;100.00;102084.41;10536094;28;20119;-69
2022/10/18 05:17:45;;;;;;;11.32;2.22;;;;;;;11.60;100.00;102045.59;10536292;28;20063;-69
2022/10/18 05:22:46;;;;;;;4.13;2.00;;;;;;;11.30;100.00;101989.69;10537656;28;20063;-69
2022/10/18 05:27:47;;;;;;;3.15;1.95;;;;;;;11.83;100.00;102067.53;10535821;28;20131;-69
2022/10/18 05:32:47;;;;;;;3.50;2.20;;;;;;;11.96;100.00;102063.84;10536147;28;20055;-70
2022/10/18 05:37:48;;;;;;;3.10;2.00;;;;;;;12.18;100.00;102084.13;10536551;28;20134;-69
2022/10/18 05:42:52;;;;;;;3.38;2.58;;;;;;;11.78;100.00;102003.19;10540294;28;20043;-69
2022/10/18 05:47:53;;;;;;;4.88;2.30;;;;;;;12.12;100.00;102064.19;10542944;28;20085;-69
2022/10/18 05:52:57;;;;;;;3.78;2.80;;;;;;;12.40;100.00;102078.53;10542190;28;20047;-69
2022/10/18 05:57:58;;;;;;;8.52;3.38;;;;;;;12.46;100.00;102067.34;10543012;28;20079;-69
2022/10/18 06:02:59;;;;;;;8.15;2.90;;;;;;;12.60;100.00;102070.59;10542506;28;20120;-69
2022/10/18 06:08:00;;;;;;;4.38;2.97;;;;;;;12.59;100.00;102067.06;10543150;28;20063;-69
2022/10/18 06:13:00;;;;;;;9.70;3.42;;;;;;;12.88;100.00;102080.41;10542525;28;20517;-69
2022/10/18 06:18:01;;;;;;;10.93;7.93;;;;;;;13.10;100.00;102078.44;10541104;28;20052;-69
2022/10/18 06:23:02;;;;;;;5.47;4.05;;;;;;;12.66;100.00;101998.88;10542294;28;20043;-69
2022/10/18 06:28:04;;;;;;;8.45;5.07;;;;;;;13.14;100.00;102075.34;10541275;28;20188;-69
2022/10/18 06:33:05;;;;;;;7.82;6.32;;;;;;;13.08;100.00;102070.59;10539969;28;20040;-69
2022/10/18 06:38:06;;;;;;;9.85;6.25;;;;;;;12.60;100.00;101977.28;10541706;28;20051;-69
2022/10/18 06:43:07;;;;;;;7.72;6.13;;;;;;;12.74;100.00;101964.34;10541818;28;20462;-69
2022/10/18 06:48:08;;;;;;;24.05;7.60;;;;;;;13.21;99.75;102027.56;10541416;28;20068;-69
2022/10/18 06:53:09;;;;;;;7.63;5.35;;;;;;;13.59;99.76;102064.03;10540340;28;20515;-69
2022/10/18 06:58:09;;;;;;;8.23;5.70;;;;;;;13.66;98.50;102042.91;10541214;28;20039;-69
2022/10/18 07:03:11;;;;;;;8.65;6.13;;;;;;;13.75;98.10;102049.22;10540836;28;20480;-69
2022/10/18 07:08:12;;;;;;;9.38;5.97;;;;;;;13.77;97.98;102023.22;10539951;28;20064;-70
2022/10/18 07:13:12;;;;;;;16.30;6.45;;;;;;;13.71;97.14;102019.28;10539526;28;20503;-69
2022/10/18 07:18:13;;;;;;;15.73;6.57;;;;;;;13.30;96.89;101952.00;10539244;28;20081;-69
2022/10/18 07:23:14;;;;;;;8.32;6.18;;;;;;;13.56;95.81;101989.56;10539153;28;20036;-69
2022/10/18 07:28:15;;;;;;;11.70;5.22;;;;;;;13.77;94.85;102017.88;10539601;28;20043;-70
2022/10/18 07:33:15;;;;;;;7.45;4.80;;;;;;;13.33;95.10;101918.84;10539992;28;20040;-69
2022/10/18 07:38:16;;;;;;;7.45;4.78;;;;;;;12.81;94.56;101809.13;10537918;28;20043;-69
2022/10/18 07:43:17;;;;;;;8.90;4.10;;;;;;;13.99;93.67;101973.88;10537599;28;20036;-69
2022/10/18 07:48:18;;;;;;;7.78;3.65;;;;;;;14.39;92.98;102009.03;10538281;28;20101;-70
2022/10/18 07:53:18;;;;;;;9.32;3.70;;;;;;;14.24;92.17;101962.44;10538818;28;20040;-69
2022/10/18 07:58:19;;;;;;;5.47;2.97;;;;;;;14.52;91.61;102018.53;10538362;28;20044;-69
2022/10/18 08:03:20;;;;;;;4.95;3.25;;;;;;;14.30;90.67;101974.38;10536521;28;20032;-69
2022/10/18 08:08:22;;;;;;;3.83;2.75;;;;;;;14.39;89.64;101992.16;10538388;28;20067;-69
2022/10/18 08:13:23;;;;;;;4.32;2.47;;;;;;;14.33;89.29;101971.38;10538312;28;20044;-68
2022/10/18 08:18:24;;;;;;;3.17;2.53;;;;;;;14.27;88.77;101970.16;10537738;28;20412;-69
2022/10/18 08:23:25;;;;;;;5.18;2.40;;;;;;;13.84;88.78;101896.91;10537512;28;20040;-69
2022/10/18 08:28:25;;;;;;;4.05;2.40;;;;;;;14.24;88.84;101977.63;10537628;28;20093;-69
2022/10/18 08:33:26;;;;;;;4.00;2.20;;;;;;;13.68;88.20;101884.22;10538528;28;20131;-69
2022/10/18 08:38:31;;;;;;;2.97;2.30;;;;;;;14.20;87.69;101965.56;10537545;28;20051;-68
2022/10/18 08:43:37;;;;;;;7.15;2.80;;;;;;;13.88;88.79;101908.13;10536727;28;20040;-69
2022/10/18 08:48:43;;;;;;;7.50;3.47;;;;;;;14.08;89.34;101957.75;10537870;28;20534;-69
2022/10/18 08:54:14;;;;;;;7.70;3.80;;;;;;;13.75;89.40;101923.69;10536523;28;20062;-69
2022/10/18 08:59:15;;;;;;;5.13;3.70;;;;;;;13.88;90.39;101966.88;10534252;28;20048;-68
2022/10/18 09:04:28;;;;;;;9.70;4.28;;;;;;;13.75;92.48;101939.72;10536304;28;20059;-69
2022/10/18 09:09:46;;;;;;;12.98;4.70;;;;;;;13.84;91.68;101938.81;10536840;28;20040;-69
2022/10/18 09:14:53;;;;;;;17.45;4.28;;;;;;;13.94;92.16;101944.94;10537651;28;20040;-69
2022/10/18 09:20:12;;;;;;;9.50;4.15;;;;;;;13.97;90.34;101927.75;10544601;28;20559;-69
2022/10/18 09:25:22;;;;;;;6.40;3.80;;;;;;;13.93;91.24;101914.69;10545065;28;20138;-69
2022/10/18 09:30:31;;;;;;;4.97;3.40;;;;;;;13.92;90.65;101930.88;10544265;28;20040;-69
2022/10/18 09:35:51;;;;;;;4.00;2.95;;;;;;;13.78;91.00;101886.81;10542539;28;20043;-69
2022/10/18 09:41:04;;;;;;;5.18;3.10;;;;;;;14.01;91.24;101913.13;10543308;28;20040;-70
2022/10/18 09:46:06;;;;;;;18.25;3.25;;;;;;;13.97;91.52;101893.88;10542633;28;20046;-68
2022/10/18 09:51:20;;;;;;;5.82;3.25;;;;;;;13.78;89.58;101864.63;10541758;28;20051;-69
2022/10/18 09:56:47;;;;;;;4.55;2.65;;;;;;;13.81;90.27;101894.53;10543261;28;20427;-68
2022/10/18 10:01:48;;;;;;;4.90;2.60;;;;;;;13.84;90.29;101896.91;10531194;28;20071;-68
2022/10/18 10:06:50;;;;;;;3.30;2.40;;;;;;;13.70;89.66;101857.38;10543230;28;20067;-69
2022/10/18 10:11:51;;;;;;;6.68;2.67;;;;;;;13.86;89.53;101862.88;10542720;28;20101;-69
2022/10/18 10:17:02;;;;;;;5.60;2.70;;;;;;;13.82;89.59;101845.47;10542318;28;20093;-68
2022/10/18 10:22:08;;;;;;;3.85;2.30;;;;;;;13.98;89.56;101870.66;10542021;28;20399;-69
2022/10/18 10:27:42;;;;;;;3.33;2.40;;;;;;;13.66;89.23;101803.41;10539671;28;20032;-69
2022/10/18 10:32:49;;;;;;;10.88;2.50;;;;;;;13.77;90.48;101818.38;10542466;28;20046;-68
2022/10/18 10:37:52;;;;;;;10.05;2.40;;;;;;;13.45;89.81;101760.16;10541106;28;20518;-69
2022/10/18 10:43:00;;;;;;;5.00;2.30;;;;;;;13.02;89.18;101679.00;10539836;28;20063;-69
2022/10/18 10:48:12;;;;;;;4.88;2.20;;;;;;;14.22;89.49;101862.03;10542203;28;20051;-68
2022/10/18 10:53:41;;;;;;;5.38;2.42;;;;;;;14.34;87.70;101858.94;10541700;28;20071;-69
2022/10/18 10:58:42;;;;;;;5.30;2.45;;;;;;;14.06;89.43;101828.84;10520762;28;20461;-68
2022/10/18 11:03:48;;;;;;;4.25;1.90;;;;;;;14.24;89.73;101854.66;10540271;28;20044;-69
2022/10/18 11:08:51;;;;;;;5.25;2.35;;;;;;;14.04;90.24;101841.50;10540297;28;20044;-68
2022/10/18 11:14:12;;;;;;;2.85;2.03;;;;;;;14.06;89.29;101850.22;10539030;28;20508;-69
2022/10/18 11:19:39;;;;;;;4.38;2.75;;;;;;;14.03;89.42;101841.63;10539892;28;20127;-69
2022/10/18 11:24:40;;;;;;;2.75;2.20;;;;;;;13.97;89.59;101837.78;10537565;28;20044;-68
2022/10/18 11:29:55;;;;;;;6.30;1.92;;;;;;;14.13;89.25;101835.22;10539650;28;20534;-68
2022/10/18 11:35:02;;;;;;;5.75;1.92;;;;;;;14.14;89.27;101815.50;10539364;28;20032;-68
2022/10/18 11:40:24;;;;;;;3.50;2.03;;;;;;;14.26;88.25;101809.94;10539228;28;20048;-69
2022/10/18 11:45:42;;;;;;;7.93;2.25;;;;;;;14.29;88.25;101809.59;10538991;28;20036;-69
2022/10/18 11:51:01;;;;;;;6.63;2.45;;;;;;;14.25;88.00;101798.41;10537153;28;20041;-69
2022/10/18 11:56:21;;;;;;;2.80;2.00;;;;;;;14.26;89.96;101805.41;10537963;28;20055;-68
2022/10/18 12:01:24;;;;;;;6.30;2.15;;;;;;;14.20;89.61;101805.19;10538426;28;20078;-69
2022/10/18 12:06:34;;;;;;;4.43;2.27;;;;;;;13.29;89.68;101664.78;10538332;28;20056;-69
2022/10/18 12:12:00;;;;;;;3.78;2.38;;;;;;;14.05;89.22;101804.91;10538743;28;20047;-68
2022/10/18 12:17:06;;;;;;;6.93;2.65;;;;;;;13.81;89.87;101770.84;10536567;28;20056;-68
2022/10/18 12:22:19;;;;;;;5.38;1.95;;;;;;;13.55;89.17;101736.06;10537216;28;20048;-68
2022/10/18 12:27:29;;;;;;;3.80;2.30;;;;;;;13.87;89.67;101792.41;10537291;28;20047;-69
2022/10/18 12:32:35;;;;;;;5.90;2.10;;;;;;;13.28;89.46;101700.44;10537426;28;20035;-69
2022/10/18 12:38:07;;;;;;;2.53;1.83;;;;;;;13.64;89.40;101768.03;10553674;28;20044;-69
2022/10/18 12:43:22;;;;;;;7.20;2.10;;;;;;;13.92;90.74;101798.16;10535991;28;20036;-69
2022/10/18 12:48:38;;;;;;;3.88;1.90;;;;;;;13.70;90.38;101753.25;10531460;28;20052;-69
2022/10/18 12:53:40;;;;;;;4.93;1.80;;;;;;;13.79;90.02;101780.81;10543468;28;20033;-69
2022/10/18 12:58:41;;;;;;;3.38;2.05;;;;;;;13.48;89.61;101731.31;10544311;28;20090;-70
2022/10/18 13:03:55;;;;;;;4.53;1.90;;;;;;;13.76;89.44;101786.47;10545177;28;20094;-68
2022/10/18 13:09:19;;;;;;;10.27;2.17;;;;;;;13.53;90.90;101749.56;10545041;28;20419;-68
2022/10/18 13:15:16;;;;;;;4.15;2.08;;;;;;;13.66;91.44;101787.41;10545241;28;20338;-68
2022/10/18 13:20:25;;;;;;;3.35;1.83;;;;;;;13.54;91.25;101787.78;10535296;28;20055;-68
2022/10/18 13:25:39;;;;;;;11.57;2.40;;;;;;;13.34;93.20;101749.72;10544127;28;20040;-69
2022/10/18 13:30:50;;;;;;;12.38;2.38;;;;;;;13.36;92.77;101761.91;10543919;28;20043;-68
2022/10/18 13:35:56;;;;;;;9.90;2.60;;;;;;;13.41;92.44;101782.81;10544103;28;20134;-68
2022/10/18 13:41:12;;;;;;;3.35;1.98;;;;;;;13.21;93.81;101745.56;10543471;28;20036;-69
2022/10/18 13:46:13;;;;;;;6.97;2.50;;;;;;;12.82;93.71;101685.44;10541295;28;20039;-69
2022/10/18 13:51:48;;;;;;;3.03;2.10;;;;;;;13.28;95.42;101755.66;10544417;28;20047;-69
2022/10/18 13:57:15;;;;;;;2.92;1.75;;;;;;;13.20;93.90;101751.06;10541726;28;20070;-69
2022/10/18 14:02:39;;;;;;;2.65;1.73;;;;;;;12.67;95.08;101667.28;10541290;28;20036;-69
2022/10/18 14:07:43;;;;;;;2.35;1.60;;;;;;;13.09;94.80;101752.09;10516369;28;20091;-69
2022/10/18 14:12:53;;;;;;;16.57;2.93;;;;;;;12.98;96.07;101739.81;10500396;28;20051;-69
2022/10/18 14:18:10;;;;;;;3.75;1.95;;;;;;;12.24;97.23;101617.31;10500100;28;20298;-69
2022/10/18 14:23:28;;;;;;;6.80;2.42;;;;;;;13.03;97.46;101756.19;10500422;28;20040;-69
2022/10/18 14:28:28;;;;;;;2.95;2.00;;;;;;;12.82;96.74;101733.44;10499362;28;20032;-69
2022/10/18 14:33:33;;;;;;;3.45;2.00;;;;;;;12.53;97.49;101671.31;10499999;28;20413;-70
2022/10/18 14:38:36;;;;;;;3.30;1.95;;;;;;;12.81;97.66;101718.44;10499576;28;20512;-69
2022/10/18 14:43:37;;;;;;;4.93;1.98;;;;;;;12.53;97.51;101665.97;10499417;28;20040;-69
2022/10/18 14:48:38;;;;;;;2.50;1.60;;;;;;;13.09;97.74;101757.44;10499281;28;20040;-69
2022/10/18 14:53:39;;;;;;;9.10;2.13;;;;;;;12.76;97.97;101705.53;10499351;28;20047;-69
2022/10/18 14:58:40;;;;;;;3.05;1.67;;;;;;;11.57;97.75;101502.06;10498840;28;20496;-69
2022/10/18 15:03:42;;;;;;;7.22;1.33;;;;;;;12.33;98.17;101633.25;10506288;28;20055;-70
2022/10/18 15:08:43;;;;;;;3.85;1.55;;;;;;;12.55;98.28;101669.31;10540423;28;20043;-69
2022/10/18 15:13:50;;;;;;;3.25;1.77;;;;;;;13.10;98.50;101759.13;10538636;28;20071;-70
2022/10/18 15:19:22;;;;;;;2.95;1.67;;;;;;;13.11;99.16;101747.47;10527150;28;20043;-69
2022/10/18 15:24:25;;;;;;;3.15;1.60;;;;;;;13.03;99.70;101742.84;10522577;28;20037;-69
2022/10/18 15:29:31;;;;;;;3.63;1.60;;;;;;;13.01;98.94;101738.66;10510755;28;20138;-69
2022/10/18 15:34:32;;;;;;;2.40;1.75;;;;;;;12.99;99.83;101735.31;10514222;28;20085;-70
2022/10/18 15:39:33;;;;;;;3.45;1.73;;;;;;;13.05;100.00;101765.91;10517421;28;20120;-71
2022/10/18 15:44:46;;;;;;;3.65;1.60;;;;;;;13.00;100.00;101737.81;10522303;28;20051;-70
2022/10/18 15:49:54;;;;;;;2.00;1.40;;;;;;;12.80;100.00;101696.25;10517436;28;20032;-70
2022/10/18 15:54:55;;;;;;;2.67;1.30;;;;;;;12.97;100.00;101729.28;10538239;28;20529;-70
2022/10/18 16:00:04;;;;;;;1.83;1.20;;;;;;;12.49;100.00;101637.09;10538530;28;20078;-69
2022/10/18 16:05:05;;;;;;;2.28;1.33;;;;;;;12.12;100.00;101578.53;10552295;28;20442;-69
2022/10/18 16:10:12;;;;;;;1.52;0.98;;;;;;;12.80;100.00;101677.59;10538763;28;20496;-69
2022/10/18 16:15:13;;;;;;;5.45;1.30;;;;;;;12.81;100.00;101686.44;10537722;28;20044;-69
2022/10/18 16:20:23;;;;;;;3.28;1.30;;;;;;;12.78;100.00;101677.75;10535179;28;20047;-69
2022/10/18 16:25:24;;;;;;;2.53;1.38;;;;;;;12.91;100.00;101689.88;10537165;28;20082;-69
2022/10/18 16:30:31;;;;;;;2.03;1.38;;;;;;;12.97;100.00;101694.59;10537076;28;20067;-69
2022/10/18 16:35:34;;;;;;;3.75;1.13;;;;;;;12.44;100.00;101616.19;10535253;28;20078;-70
2022/10/18 16:40:35;;;;;;;3.42;1.20;;;;;;;11.75;100.00;101500.31;10535049;28;20104;-69
2022/10/18 16:45:35;;;;;;;3.80;1.10;;;;;;;12.36;100.00;101593.97;10535237;28;20488;-69
2022/10/18 16:50:36;;;;;;;2.20;0.90;;;;;;;12.78;100.00;101663.59;10537464;28;20040;-69
2022/10/18 16:55:39;;;;;;;1.92;1.00;;;;;;;12.78;100.00;101664.41;10535559;28;20040;-70
2022/10/18 17:00:40;;;;;;;5.03;1.35;;;;;;;12.87;100.00;101661.84;10553673;28;20051;-69
2022/10/18 17:05:42;;;;;;;4.82;1.40;;;;;;;12.93;100.00;101663.91;10535717;28;20063;-69
2022/10/18 17:10:43;;;;;;;3.60;1.63;;;;;;;12.92;100.00;101649.75;10536955;28;20424;-69
2022/10/18 17:15:44;;;;;;;8.65;1.35;;;;;;;12.88;100.00;101647.50;10536487;28;20032;-69
2022/10/18 17:20:45;;;;;;;3.17;1.30;;;;;;;12.82;100.00;101643.63;10535258;28;20047;-69
2022/10/18 17:25:46;;;;;;;1.90;1.30;;;;;;;12.89;100.00;101663.38;10537153;28;20083;-69
2022/10/18 17:30:47;;;;;;;2.38;1.20;;;;;;;12.82;100.00;101643.63;10534296;28;20064;-69
2022/10/18 17:35:48;;;;;;;2.97;1.10;;;;;;;12.75;100.00;101629.22;10537185;28;20044;-69
2022/10/18 17:40:51;;;;;;;1.67;1.10;;;;;;;11.90;100.00;101463.41;10543202;28;20043;-72
2022/10/18 17:45:55;;;;;;;9.23;2.25;;;;;;;12.97;100.00;101627.94;10534861;28;20083;-70
2022/10/18 17:50:56;;;;;;;6.32;1.17;;;;;;;12.85;100.00;101599.81;10541419;28;20522;-70
2022/10/18 17:55:59;;;;;;;3.20;2.03;;;;;;;12.28;100.00;101502.28;10534326;28;20040;-70
2022/10/18 18:01:20;;;;;;;3.03;1.60;;;;;;;12.25;100.00;101478.59;10527510;28;20130;-70
2022/10/18 18:06:32;;;;;;;6.85;2.53;;;;;;;12.91;100.00;101596.53;10534775;28;20566;-70
2022/10/18 18:11:35;;;;;;;5.25;1.60;;;;;;;12.78;100.00;101588.91;10511681;28;20085;-68
2022/10/18 18:16:42;;;;;;;1.88;1.20;;;;;;;12.53;100.00;101531.84;10541528;28;20082;-70
2022/10/18 18:21:43;;;;;;;4.22;1.40;;;;;;;12.76;100.00;101565.06;10539380;28;20139;-70
2022/10/18 18:26:44;;;;;;;3.08;1.75;;;;;;;12.90;100.00;101584.19;10541512;28;20032;-69
2022/10/18 18:31:45;;;;;;;5.25;2.17;;;;;;;12.21;100.00;101457.78;10539999;28;20051;-69
2022/10/18 18:36:46;;;;;;;3.65;1.40;;;;;;;12.71;100.00;101540.69;10541830;28;20127;-69
2022/10/18 18:41:49;;;;;;;4.78;1.80;;;;;;;12.95;100.00;101569.41;10541512;28;20071;-69
2022/10/18 18:46:50;;;;;;;3.05;1.48;;;;;;;12.60;100.00;101510.75;10541986;28;20564;-69
2022/10/18 18:51:51;;;;;;;1.88;1.40;;;;;;;12.59;100.00;101504.56;10539946;28;20101;-69
2022/10/18 18:56:51;;;;;;;4.78;1.45;;;;;;;12.87;100.00;101544.50;10526359;28;20048;-69
2022/10/18 19:01:52;;;;;;;2.40;1.50;;;;;;;12.74;100.00;101531.53;10512234;28;20041;-70
2022/10/18 19:06:53;;;;;;;4.50;1.35;;;;;;;12.50;100.00;101474.38;10518563;28;20052;-70
2022/10/18 19:11:55;;;;;;;4.72;1.70;;;;;;;12.95;100.00;101552.56;10518321;28;20518;-70
2022/10/18 19:16:57;;;;;;;1.80;1.20;;;;;;;12.90;100.00;101528.19;10532979;28;20051;-70
2022/10/18 19:22:02;;;;;;;2.80;1.70;;;;;;;12.92;100.00;101536.84;10515401;28;20043;-70
2022/10/18 19:27:10;;;;;;;3.00;1.88;;;;;;;12.81;100.00;101513.13;10517224;28;20036;-69
2022/10/18 19:32:12;;;;;;;4.45;1.95;;;;;;;12.33;100.00;101433.41;10535981;28;20051;-69
2022/10/18 19:37:14;;;;;;;5.03;2.03;;;;;;;12.74;100.00;101497.75;10538731;28;20090;-69
2022/10/18 19:42:15;;;;;;;3.85;2.00;;;;;;;12.43;100.00;101445.81;10538706;28;20042;-69
2022/10/18 19:47:15;;;;;;;3.67;2.67;;;;;;;12.09;100.00;101385.22;10539692;28;20043;-69
2022/10/18 19:52:16;;;;;;;3.83;2.78;;;;;;;12.63;100.00;101462.47;10537379;28;20047;-69
2022/10/18 19:57:17;;;;;;;3.03;2.30;;;;;;;12.25;100.00;101389.88;10538054;28;20126;-70
2022/10/18 20:02:18;;;;;;;3.33;2.00;;;;;;;12.34;100.00;101399.59;10537646;28;20034;-69
2022/10/18 20:07:18;;;;;;;3.22;2.70;;;;;;;12.51;100.00;101436.06;10537529;28;20060;-69
2022/10/18 20:12:19;;;;;;;3.78;2.50;;;;;;;12.63;100.00;101457.97;10539171;28;20075;-69
2022/10/18 20:17:20;;;;;;;3.58;2.42;;;;;;;12.55;100.00;101447.25;10537982;28;20044;-69
2022/10/18 20:22:21;;;;;;;3.45;2.85;;;;;;;12.42;100.00;101413.00;10538478;28;20048;-69
2022/10/18 20:27:22;;;;;;;3.60;3.00;;;;;;;12.54;100.00;101422.41;10535821;28;20040;-69
2022/10/18 20:32:23;;;;;;;5.25;3.13;;;;;;;12.56;100.00;101401.78;10537649;28;20090;-70
2022/10/18 20:37:24;;;;;;;3.42;2.90;;;;;;;11.95;100.00;101298.72;10537572;28;20502;-69
2022/10/18 20:42:24;;;;;;;5.13;2.97;;;;;;;12.52;100.00;101396.91;10537517;28;20043;-70
2022/10/18 20:47:25;;;;;;;7.40;3.67;;;;;;;11.87;100.00;101285.31;10537303;28;20200;-69
2022/10/18 20:52:26;;;;;;;6.43;3.63;;;;;;;12.38;100.00;101358.31;10536651;28;20032;-69
2022/10/18 20:57:29;;;;;;;5.70;3.78;;;;;;;12.25;100.00;101339.25;10537556;28;20040;-69
2022/10/18 21:02:30;;;;;;;4.50;2.95;;;;;;;12.31;100.00;101343.94;10536454;28;20555;-69
2022/10/18 21:07:31;;;;;;;7.50;4.13;;;;;;;12.21;100.00;101312.09;10537475;28;20139;-70
2022/10/18 21:12:31;;;;;;;4.47;3.53;;;;;;;11.71;100.00;101230.09;10539339;28;20525;-69
2022/10/18 21:17:32;;;;;;;6.65;3.80;;;;;;;12.27;100.00;101322.13;10544934;28;20036;-69
2022/10/18 21:22:33;;;;;;;4.15;3.63;;;;;;;12.01;100.00;101271.47;10544722;28;20035;-69
2022/10/18 21:27:34;;;;;;;6.00;3.33;;;;;;;12.20;100.00;101293.56;10544171;28;20040;-69
2022/10/18 21:32:34;;;;;;;6.18;3.88;;;;;;;12.29;100.00;101306.81;10544395;28;20036;-69
2022/10/18 21:37:35;;;;;;;5.18;3.90;;;;;;;12.39;100.00;101317.38;10544668;28;20048;-71
2022/10/18 21:42:36;;;;;;;4.20;3.45;;;;;;;12.40;100.00;101318.22;10544152;28;20067;-69
2022/10/18 21:47:37;;;;;;;5.63;3.70;;;;;;;11.68;100.00;101184.31;10542652;28;20036;-69
2022/10/18 21:52:38;;;;;;;5.47;3.67;;;;;;;12.07;100.00;101248.72;10543176;28;20066;-69
2022/10/18 21:57:38;;;;;;;5.53;3.55;;;;;;;12.33;100.00;101283.34;10543498;28;20036;-69
2022/10/18 22:02:39;;;;;;;10.43;4.90;;;;;;;12.34;100.00;101287.69;10543551;28;20082;-69
2022/10/18 22:07:40;;;;;;;5.55;4.65;;;;;;;11.54;100.00;101167.91;10543304;28;20078;-69
2022/10/18 22:12:41;;;;;;;6.85;4.32;;;;;;;12.23;100.00;101288.75;10543451;28;20143;-69
2022/10/18 22:17:41;;;;;;;6.03;4.45;;;;;;;11.57;100.00;101188.88;10541941;28;20047;-69
2022/10/18 22:22:42;;;;;;;7.03;4.53;;;;;;;11.96;100.00;101248.94;10541287;28;20040;-69
2022/10/18 22:27:43;;;;;;;4.32;3.67;;;;;;;12.19;100.00;101284.75;10542859;28;20488;-69
2022/10/18 22:32:44;;;;;;;5.65;4.30;;;;;;;12.02;100.00;101270.47;10541494;28;20040;-69
2022/10/18 22:37:44;;;;;;;5.05;3.50;;;;;;;12.13;100.00;101273.88;10541806;28;20048;-69
2022/10/18 22:42:45;;;;;;;7.53;4.15;;;;;;;11.63;100.00;101187.44;10541914;28;20127;-69
2022/10/18 22:47:46;;;;;;;5.07;3.72;;;;;;;12.06;100.00;101261.19;10541416;28;20066;-69
2022/10/18 22:52:46;;;;;;;4.85;4.05;;;;;;;11.58;100.00;101168.47;10540803;28;20032;-69
2022/10/18 22:57:47;;;;;;;7.80;4.43;;;;;;;11.73;100.00;101193.53;10541107;28;20100;-70
2022/10/18 23:02:48;;;;;;;4.63;4.15;;;;;;;11.93;100.00;101220.81;10540771;28;20240;-69
2022/10/18 23:07:49;;;;;;;5.93;4.90;;;;;;;12.05;100.00;101243.53;10540871;28;20062;-69
2022/10/18 23:12:50;;;;;;;7.70;4.40;;;;;;;11.36;100.00;101112.06;10540539;28;20046;-69